sensor_id;sensor_type;location;lat;lon;timestamp;temperature;humidity
60287;DHT22;46141;52.382;5.270;2023-03-23T00:00:07;20.70;71.20
60287;DHT22;46141;52.382;5.270;2023-03-23T00:02:34;20.70;70.70
60287;DHT22;46141;52.382;5.270;2023-03-23T00:05:06;20.70;70.70
60287;DHT22;46141;52.382;5.270;2023-03-23T00:07:33;20.70;70.80
60287;DHT22;46141;52.382;5.270;2023-03-23T00:09:59;20.70;70.80
60287;DHT22;46141;52.382;5.270;2023-03-23T00:12:30;20.60;70.80
60287;DHT22;46141;52.382;5.270;2023-03-23T00:15:07;20.70;70.80
60287;DHT22;46141;52.382;5.270;2023-03-23T00:17:34;20.60;70.80
60287;DHT22;46141;52.382;5.270;2023-03-23T00:20:01;20.60;70.80
60287;DHT22;46141;52.382;5.270;2023-03-23T00:22:29;20.60;70.80
60287;DHT22;46141;52.382;5.270;2023-03-23T00:24:55;20.60;70.70
60287;DHT22;46141;52.382;5.270;2023-03-23T00:27:22;20.60;70.70
60287;DHT22;46141;52.382;5.270;2023-03-23T00:29:51;20.60;70.70
60287;DHT22;46141;52.382;5.270;2023-03-23T00:32:20;20.60;70.80
60287;DHT22;46141;52.382;5.270;2023-03-23T00:34:47;20.60;70.60
60287;DHT22;46141;52.382;5.270;2023-03-23T00:37:15;20.60;70.50
60287;DHT22;46141;52.382;5.270;2023-03-23T00:39:44;20.60;70.60
60287;DHT22;46141;52.382;5.270;2023-03-23T00:42:15;20.60;70.80
60287;DHT22;46141;52.382;5.270;2023-03-23T00:44:42;20.50;70.80
60287;DHT22;46141;52.382;5.270;2023-03-23T00:47:10;20.50;70.90
60287;DHT22;46141;52.382;5.270;2023-03-23T00:49:36;20.50;70.80
60287;DHT22;46141;52.382;5.270;2023-03-23T00:52:03;20.50;70.80
60287;DHT22;46141;52.382;5.270;2023-03-23T00:54:30;20.50;70.90
60287;DHT22;46141;52.382;5.270;2023-03-23T00:56:55;20.50;71.00
60287;DHT22;46141;52.382;5.270;2023-03-23T00:59:22;20.40;71.00
60287;DHT22;46141;52.382;5.270;2023-03-23T01:01:48;20.40;71.00
60287;DHT22;46141;52.382;5.270;2023-03-23T01:04:15;20.40;71.10
60287;DHT22;46141;52.382;5.270;2023-03-23T01:06:42;20.40;71.10
60287;DHT22;46141;52.382;5.270;2023-03-23T01:09:15;20.40;71.20
60287;DHT22;46141;52.382;5.270;2023-03-23T01:11:45;20.40;71.20
60287;DHT22;46141;52.382;5.270;2023-03-23T01:14:13;20.40;71.20
60287;DHT22;46141;52.382;5.270;2023-03-23T01:16:39;20.40;71.10
60287;DHT22;46141;52.382;5.270;2023-03-23T01:19:05;20.40;71.10
60287;DHT22;46141;52.382;5.270;2023-03-23T01:21:31;20.40;71.10
60287;DHT22;46141;52.382;5.270;2023-03-23T01:23:57;20.40;71.10
60287;DHT22;46141;52.382;5.270;2023-03-23T01:26:26;20.40;71.10
60287;DHT22;46141;52.382;5.270;2023-03-23T01:28:52;20.40;71.20
60287;DHT22;46141;52.382;5.270;2023-03-23T01:31:21;20.40;71.00
60287;DHT22;46141;52.382;5.270;2023-03-23T01:33:48;20.40;71.00
60287;DHT22;46141;52.382;5.270;2023-03-23T01:36:19;20.40;70.90
60287;DHT22;46141;52.382;5.270;2023-03-23T01:38:48;20.40;71.20
60287;DHT22;46141;52.382;5.270;2023-03-23T01:41:15;20.30;71.20
60287;DHT22;46141;52.382;5.270;2023-03-23T01:44:03;20.30;71.10
60287;DHT22;46141;52.382;5.270;2023-03-23T01:46:32;20.30;71.20
60287;DHT22;46141;52.382;5.270;2023-03-23T01:49:04;20.30;71.20
60287;DHT22;46141;52.382;5.270;2023-03-23T01:51:37;20.30;71.20
60287;DHT22;46141;52.382;5.270;2023-03-23T01:54:08;20.30;71.20
60287;DHT22;46141;52.382;5.270;2023-03-23T01:56:44;20.30;71.20
60287;DHT22;46141;52.382;5.270;2023-03-23T01:59:13;20.30;71.20
60287;DHT22;46141;52.382;5.270;2023-03-23T02:01:39;20.30;71.10
60287;DHT22;46141;52.382;5.270;2023-03-23T02:04:13;20.20;71.20
60287;DHT22;46141;52.382;5.270;2023-03-23T02:06:40;20.20;71.10
60287;DHT22;46141;52.382;5.270;2023-03-23T02:09:07;20.30;71.10
60287;DHT22;46141;52.382;5.270;2023-03-23T02:11:32;20.20;71.00
60287;DHT22;46141;52.382;5.270;2023-03-23T02:13:58;20.20;71.20
60287;DHT22;46141;52.382;5.270;2023-03-23T02:16:41;20.20;71.10
60287;DHT22;46141;52.382;5.270;2023-03-23T02:35:38;20.20;71.00
60287;DHT22;46141;52.382;5.270;2023-03-23T02:38:16;20.20;71.10
60287;DHT22;46141;52.382;5.270;2023-03-23T02:40:48;20.10;71.10
60287;DHT22;46141;52.382;5.270;2023-03-23T02:43:18;20.10;71.00
60287;DHT22;46141;52.382;5.270;2023-03-23T02:45:46;20.10;71.00
60287;DHT22;46141;52.382;5.270;2023-03-23T02:48:15;20.10;70.90
60287;DHT22;46141;52.382;5.270;2023-03-23T02:50:47;20.10;71.00
60287;DHT22;46141;52.382;5.270;2023-03-23T02:53:20;20.10;71.00
60287;DHT22;46141;52.382;5.270;2023-03-23T02:55:47;20.10;71.00
60287;DHT22;46141;52.382;5.270;2023-03-23T02:58:14;20.10;71.00
60287;DHT22;46141;52.382;5.270;2023-03-23T03:00:41;20.10;70.80
60287;DHT22;46141;52.382;5.270;2023-03-23T03:03:13;20.10;70.70
60287;DHT22;46141;52.382;5.270;2023-03-23T03:11:12;20.10;70.60
60287;DHT22;46141;52.382;5.270;2023-03-23T03:13:52;20.10;70.60
60287;DHT22;46141;52.382;5.270;2023-03-23T03:16:57;20.10;70.60
60287;DHT22;46141;52.382;5.270;2023-03-23T03:19:31;20.00;70.40
60287;DHT22;46141;52.382;5.270;2023-03-23T03:21:59;20.00;70.50
60287;DHT22;46141;52.382;5.270;2023-03-23T03:24:28;20.00;70.50
60287;DHT22;46141;52.382;5.270;2023-03-23T03:26:58;20.00;70.50
60287;DHT22;46141;52.382;5.270;2023-03-23T03:29:37;20.00;70.70
60287;DHT22;46141;52.382;5.270;2023-03-23T03:32:12;20.00;70.40
60287;DHT22;46141;52.382;5.270;2023-03-23T03:34:38;20.00;70.30
60287;DHT22;46141;52.382;5.270;2023-03-23T03:37:05;20.00;70.40
60287;DHT22;46141;52.382;5.270;2023-03-23T03:39:35;20.00;70.30
60287;DHT22;46141;52.382;5.270;2023-03-23T03:42:01;19.90;70.20
60287;DHT22;46141;52.382;5.270;2023-03-23T03:44:27;19.90;70.30
60287;DHT22;46141;52.382;5.270;2023-03-23T03:46:53;20.00;70.20
60287;DHT22;46141;52.382;5.270;2023-03-23T03:49:19;20.00;70.20
60287;DHT22;46141;52.382;5.270;2023-03-23T03:51:45;19.90;70.20
60287;DHT22;46141;52.382;5.270;2023-03-23T03:54:10;19.90;70.30
60287;DHT22;46141;52.382;5.270;2023-03-23T03:56:37;19.90;70.30
60287;DHT22;46141;52.382;5.270;2023-03-23T03:59:07;19.90;70.20
60287;DHT22;46141;52.382;5.270;2023-03-23T04:01:34;19.90;70.20
60287;DHT22;46141;52.382;5.270;2023-03-23T04:04:00;19.90;70.10
60287;DHT22;46141;52.382;5.270;2023-03-23T04:06:26;19.90;70.20
60287;DHT22;46141;52.382;5.270;2023-03-23T04:08:54;19.90;70.10
60287;DHT22;46141;52.382;5.270;2023-03-23T04:11:21;19.80;70.20
60287;DHT22;46141;52.382;5.270;2023-03-23T04:13:46;19.80;70.10
60287;DHT22;46141;52.382;5.270;2023-03-23T04:16:12;19.80;70.00
60287;DHT22;46141;52.382;5.270;2023-03-23T04:18:38;19.80;70.00
60287;DHT22;46141;52.382;5.270;2023-03-23T04:21:05;19.80;70.00
60287;DHT22;46141;52.382;5.270;2023-03-23T04:23:34;19.80;70.00
60287;DHT22;46141;52.382;5.270;2023-03-23T04:26:01;19.80;70.10
60287;DHT22;46141;52.382;5.270;2023-03-23T04:28:28;19.80;70.10
60287;DHT22;46141;52.382;5.270;2023-03-23T04:30:55;19.80;70.00
60287;DHT22;46141;52.382;5.270;2023-03-23T04:33:23;19.70;70.00
60287;DHT22;46141;52.382;5.270;2023-03-23T04:35:51;19.80;70.00
60287;DHT22;46141;52.382;5.270;2023-03-23T04:38:19;19.70;69.80
60287;DHT22;46141;52.382;5.270;2023-03-23T04:40:47;19.80;70.00
60287;DHT22;46141;52.382;5.270;2023-03-23T04:43:13;19.70;70.00
60287;DHT22;46141;52.382;5.270;2023-03-23T04:45:40;19.70;69.90
60287;DHT22;46141;52.382;5.270;2023-03-23T04:48:10;19.70;69.90
60287;DHT22;46141;52.382;5.270;2023-03-23T04:50:37;19.70;69.90
60287;DHT22;46141;52.382;5.270;2023-03-23T04:53:04;19.70;69.90
60287;DHT22;46141;52.382;5.270;2023-03-23T04:55:35;19.70;70.00
60287;DHT22;46141;52.382;5.270;2023-03-23T04:58:05;19.70;70.00
60287;DHT22;46141;52.382;5.270;2023-03-23T05:00:32;19.70;70.00
60287;DHT22;46141;52.382;5.270;2023-03-23T05:02:58;19.70;69.90
60287;DHT22;46141;52.382;5.270;2023-03-23T05:05:24;19.60;69.90
60287;DHT22;46141;52.382;5.270;2023-03-23T05:07:51;19.70;69.70
60287;DHT22;46141;52.382;5.270;2023-03-23T05:10:17;19.60;69.60
60287;DHT22;46141;52.382;5.270;2023-03-23T05:12:43;19.60;69.70
60287;DHT22;46141;52.382;5.270;2023-03-23T05:15:11;19.60;69.70
60287;DHT22;46141;52.382;5.270;2023-03-23T05:17:38;19.60;69.70
60287;DHT22;46141;52.382;5.270;2023-03-23T05:20:06;19.60;69.70
60287;DHT22;46141;52.382;5.270;2023-03-23T05:22:35;19.60;69.70
60287;DHT22;46141;52.382;5.270;2023-03-23T05:25:02;19.60;69.70
60287;DHT22;46141;52.382;5.270;2023-03-23T05:27:28;19.60;69.70
60287;DHT22;46141;52.382;5.270;2023-03-23T05:29:56;19.60;69.70
60287;DHT22;46141;52.382;5.270;2023-03-23T05:32:24;19.50;69.80
60287;DHT22;46141;52.382;5.270;2023-03-23T05:34:57;19.50;70.30
60287;DHT22;46141;52.382;5.270;2023-03-23T05:37:25;19.50;69.80
60287;DHT22;46141;52.382;5.270;2023-03-23T05:39:52;19.50;69.70
60287;DHT22;46141;52.382;5.270;2023-03-23T05:42:22;19.50;69.70
60287;DHT22;46141;52.382;5.270;2023-03-23T05:44:48;19.50;69.80
60287;DHT22;46141;52.382;5.270;2023-03-23T05:47:14;19.50;69.70
60287;DHT22;46141;52.382;5.270;2023-03-23T05:49:40;19.50;70.30
60287;DHT22;46141;52.382;5.270;2023-03-23T05:52:06;19.50;69.70
60287;DHT22;46141;52.382;5.270;2023-03-23T05:54:31;19.50;69.80
60287;DHT22;46141;52.382;5.270;2023-03-23T05:56:57;19.50;69.70
60287;DHT22;46141;52.382;5.270;2023-03-23T05:59:23;19.50;69.70
60287;DHT22;46141;52.382;5.270;2023-03-23T06:01:48;19.50;69.70
60287;DHT22;46141;52.382;5.270;2023-03-23T06:04:16;19.40;69.70
60287;DHT22;46141;52.382;5.270;2023-03-23T06:06:42;19.40;69.70
60287;DHT22;46141;52.382;5.270;2023-03-23T06:09:09;19.40;70.30
60287;DHT22;46141;52.382;5.270;2023-03-23T06:11:35;19.40;69.70
60287;DHT22;46141;52.382;5.270;2023-03-23T06:14:01;19.40;69.80
60287;DHT22;46141;52.382;5.270;2023-03-23T06:16:27;19.40;69.70
60287;DHT22;46141;52.382;5.270;2023-03-23T06:18:52;19.40;69.70
60287;DHT22;46141;52.382;5.270;2023-03-23T06:21:18;19.40;69.80
60287;DHT22;46141;52.382;5.270;2023-03-23T06:23:45;19.40;69.70
60287;DHT22;46141;52.382;5.270;2023-03-23T06:26:14;19.40;69.80
60287;DHT22;46141;52.382;5.270;2023-03-23T06:28:43;19.40;69.80
60287;DHT22;46141;52.382;5.270;2023-03-23T06:31:08;19.40;70.00
60287;DHT22;46141;52.382;5.270;2023-03-23T06:33:36;19.40;70.00
60287;DHT22;46141;52.382;5.270;2023-03-23T06:36:03;19.40;70.00
60287;DHT22;46141;52.382;5.270;2023-03-23T06:38:30;19.40;70.70
60287;DHT22;46141;52.382;5.270;2023-03-23T06:40:55;19.30;70.90
60287;DHT22;46141;52.382;5.270;2023-03-23T06:43:23;19.40;69.50
60287;DHT22;46141;52.382;5.270;2023-03-23T06:45:49;19.30;69.30
60287;DHT22;46141;52.382;5.270;2023-03-23T06:48:15;19.30;69.70
60287;DHT22;46141;52.382;5.270;2023-03-23T06:53:44;19.30;70.30
60287;DHT22;46141;52.382;5.270;2023-03-23T06:56:11;19.30;70.10
60287;DHT22;46141;52.382;5.270;2023-03-23T06:58:38;19.30;70.00
60287;DHT22;46141;52.382;5.270;2023-03-23T07:01:04;19.40;70.00
60287;DHT22;46141;52.382;5.270;2023-03-23T07:03:30;19.30;70.10
60287;DHT22;46141;52.382;5.270;2023-03-23T07:05:57;19.30;70.10
60287;DHT22;46141;52.382;5.270;2023-03-23T07:08:23;19.30;70.20
60287;DHT22;46141;52.382;5.270;2023-03-23T07:10:54;19.30;70.20
60287;DHT22;46141;52.382;5.270;2023-03-23T07:13:21;19.30;70.30
60287;DHT22;46141;52.382;5.270;2023-03-23T07:15:47;19.30;71.00
60287;DHT22;46141;52.382;5.270;2023-03-23T07:18:14;19.30;70.30
60287;DHT22;46141;52.382;5.270;2023-03-23T07:20:40;19.30;70.60
60287;DHT22;46141;52.382;5.270;2023-03-23T07:23:06;19.30;70.50
60287;DHT22;46141;52.382;5.270;2023-03-23T07:25:33;19.30;70.30
60287;DHT22;46141;52.382;5.270;2023-03-23T07:28:02;19.30;70.50
60287;DHT22;46141;52.382;5.270;2023-03-23T07:30:29;19.30;70.50
60287;DHT22;46141;52.382;5.270;2023-03-23T07:32:56;19.30;70.70
60287;DHT22;46141;52.382;5.270;2023-03-23T07:35:22;19.20;70.90
60287;DHT22;46141;52.382;5.270;2023-03-23T07:37:48;19.30;70.90
60287;DHT22;46141;52.382;5.270;2023-03-23T07:40:15;19.30;70.80
60287;DHT22;46141;52.382;5.270;2023-03-23T07:42:46;19.30;70.90
60287;DHT22;46141;52.382;5.270;2023-03-23T07:45:15;19.30;71.40
60287;DHT22;46141;52.382;5.270;2023-03-23T07:48:02;19.30;71.50
60287;DHT22;46141;52.382;5.270;2023-03-23T07:50:28;19.30;71.50
60287;DHT22;46141;52.382;5.270;2023-03-23T07:52:56;19.30;71.50
60287;DHT22;46141;52.382;5.270;2023-03-23T07:55:22;19.30;71.90
60287;DHT22;46141;52.382;5.270;2023-03-23T07:57:51;19.30;72.10
60287;DHT22;46141;52.382;5.270;2023-03-23T08:00:19;19.30;72.50
60287;DHT22;46141;52.382;5.270;2023-03-23T08:02:47;19.30;72.50
60287;DHT22;46141;52.382;5.270;2023-03-23T08:05:14;19.40;72.50
60287;DHT22;46141;52.382;5.270;2023-03-23T08:07:41;19.50;72.30
60287;DHT22;46141;52.382;5.270;2023-03-23T08:10:08;19.50;72.30
60287;DHT22;46141;52.382;5.270;2023-03-23T08:12:38;19.60;72.30
60287;DHT22;46141;52.382;5.270;2023-03-23T08:15:06;19.60;72.20
60287;DHT22;46141;52.382;5.270;2023-03-23T08:17:32;19.70;72.20
60287;DHT22;46141;52.382;5.270;2023-03-23T08:19:59;19.80;72.00
60287;DHT22;46141;52.382;5.270;2023-03-23T08:22:26;19.90;71.90
60287;DHT22;46141;52.382;5.270;2023-03-23T08:24:54;20.00;71.70
60287;DHT22;46141;52.382;5.270;2023-03-23T08:27:20;20.10;71.40
60287;DHT22;46141;52.382;5.270;2023-03-23T08:29:46;20.30;71.20
60287;DHT22;46141;52.382;5.270;2023-03-23T08:32:12;20.40;70.90
60287;DHT22;46141;52.382;5.270;2023-03-23T08:34:38;20.50;70.80
60287;DHT22;46141;52.382;5.270;2023-03-23T08:37:04;20.50;70.60
60287;DHT22;46141;52.382;5.270;2023-03-23T08:39:31;20.60;70.70
60287;DHT22;46141;52.382;5.270;2023-03-23T08:41:57;20.60;70.60
60287;DHT22;46141;52.382;5.270;2023-03-23T08:44:22;20.70;71.20
60287;DHT22;46141;52.382;5.270;2023-03-23T08:46:48;20.70;70.50
60287;DHT22;46141;52.382;5.270;2023-03-23T08:49:15;20.80;70.50
60287;DHT22;46141;52.382;5.270;2023-03-23T08:51:41;20.80;70.50
60287;DHT22;46141;52.382;5.270;2023-03-23T08:54:07;20.80;70.50
60287;DHT22;46141;52.382;5.270;2023-03-23T08:56:33;20.90;70.50
60287;DHT22;46141;52.382;5.270;2023-03-23T08:58:58;20.80;70.30
60287;DHT22;46141;52.382;5.270;2023-03-23T09:01:24;20.90;70.20
60287;DHT22;46141;52.382;5.270;2023-03-23T09:03:50;21.00;70.30
60287;DHT22;46141;52.382;5.270;2023-03-23T09:06:17;21.00;70.00
60287;DHT22;46141;52.382;5.270;2023-03-23T09:08:42;21.10;69.80
60287;DHT22;46141;52.382;5.270;2023-03-23T09:11:09;21.20;69.70
60287;DHT22;46141;52.382;5.270;2023-03-23T09:13:37;21.10;69.70
60287;DHT22;46141;52.382;5.270;2023-03-23T09:16:05;21.20;69.50
60287;DHT22;46141;52.382;5.270;2023-03-23T09:18:31;21.30;69.40
60287;DHT22;46141;52.382;5.270;2023-03-23T09:21:01;21.30;69.30
60287;DHT22;46141;52.382;5.270;2023-03-23T09:23:28;21.40;69.20
60287;DHT22;46141;52.382;5.270;2023-03-23T09:25:54;21.40;69.20
60287;DHT22;46141;52.382;5.270;2023-03-23T09:28:20;21.40;69.20
60287;DHT22;46141;52.382;5.270;2023-03-23T09:30:46;21.50;69.30
60287;DHT22;46141;52.382;5.270;2023-03-23T09:33:13;21.50;69.20
60287;DHT22;46141;52.382;5.270;2023-03-23T09:35:40;21.50;69.20
60287;DHT22;46141;52.382;5.270;2023-03-23T09:38:08;21.50;69.20
60287;DHT22;46141;52.382;5.270;2023-03-23T09:40:50;21.50;69.30
60287;DHT22;46141;52.382;5.270;2023-03-23T09:48:53;21.60;70.00
60287;DHT22;46141;52.382;5.270;2023-03-23T09:51:41;21.60;70.10
60287;DHT22;46141;52.382;5.270;2023-03-23T09:56:37;21.70;70.30
60287;DHT22;46141;52.382;5.270;2023-03-23T10:01:46;21.80;70.20
60287;DHT22;46141;52.382;5.270;2023-03-23T10:07:15;21.90;70.10
60287;DHT22;46141;52.382;5.270;2023-03-23T10:09:45;22.00;70.00
60287;DHT22;46141;52.382;5.270;2023-03-23T10:25:34;22.30;70.20
60287;DHT22;46141;52.382;5.270;2023-03-23T10:28:22;22.30;70.90
60287;DHT22;46141;52.382;5.270;2023-03-23T10:30:56;22.40;70.30
60287;DHT22;46141;52.382;5.270;2023-03-23T10:33:44;22.40;70.20
60287;DHT22;46141;52.382;5.270;2023-03-23T10:36:26;22.40;70.20
60287;DHT22;46141;52.382;5.270;2023-03-23T10:39:12;22.40;70.20
60287;DHT22;46141;52.382;5.270;2023-03-23T10:41:39;22.40;70.30
60287;DHT22;46141;52.382;5.270;2023-03-23T10:44:12;22.50;70.30
60287;DHT22;46141;52.382;5.270;2023-03-23T10:46:59;22.50;70.30
60287;DHT22;46141;52.382;5.270;2023-03-23T10:49:34;22.50;70.20
60287;DHT22;46141;52.382;5.270;2023-03-23T10:57:30;22.50;70.30
60287;DHT22;46141;52.382;5.270;2023-03-23T11:02:41;22.60;70.30
60287;DHT22;46141;52.382;5.270;2023-03-23T11:05:21;22.60;70.30
60287;DHT22;46141;52.382;5.270;2023-03-23T11:07:54;22.60;70.20
60287;DHT22;46141;52.382;5.270;2023-03-23T11:10:26;22.60;70.20
60287;DHT22;46141;52.382;5.270;2023-03-23T11:12:56;22.60;70.20
60287;DHT22;46141;52.382;5.270;2023-03-23T11:15:40;22.60;70.30
60287;DHT22;46141;52.382;5.270;2023-03-23T11:18:11;22.60;70.20
60287;DHT22;46141;52.382;5.270;2023-03-23T11:20:41;22.70;70.30
60287;DHT22;46141;52.382;5.270;2023-03-23T11:28:21;22.70;70.10
60287;DHT22;46141;52.382;5.270;2023-03-23T11:30:47;22.70;70.10
60287;DHT22;46141;52.382;5.270;2023-03-23T11:33:14;22.70;70.10
60287;DHT22;46141;52.382;5.270;2023-03-23T11:35:44;22.70;70.10
60287;DHT22;46141;52.382;5.270;2023-03-23T11:38:18;22.70;70.00
60287;DHT22;46141;52.382;5.270;2023-03-23T11:40:50;22.80;69.90
60287;DHT22;46141;52.382;5.270;2023-03-23T11:43:24;22.80;69.80
60287;DHT22;46141;52.382;5.270;2023-03-23T11:51:23;22.90;69.50
60287;DHT22;46141;52.382;5.270;2023-03-23T11:53:53;22.90;69.50
60287;DHT22;46141;52.382;5.270;2023-03-23T11:56:35;22.90;69.60
60287;DHT22;46141;52.382;5.270;2023-03-23T11:59:03;23.00;69.60
60287;DHT22;46141;52.382;5.270;2023-03-23T12:04:33;23.00;69.60
60287;DHT22;46141;52.382;5.270;2023-03-23T12:07:13;23.10;69.60
60287;DHT22;46141;52.382;5.270;2023-03-23T12:18:57;23.00;70.50
60287;DHT22;46141;52.382;5.270;2023-03-23T12:21:50;23.00;69.90
60287;DHT22;46141;52.382;5.270;2023-03-23T12:30:20;22.90;70.00
60287;DHT22;46141;52.382;5.270;2023-03-23T12:35:38;22.80;70.10
60287;DHT22;46141;52.382;5.270;2023-03-23T12:49:17;22.70;70.20
60287;DHT22;46141;52.382;5.270;2023-03-23T13:06:00;22.60;70.10
60287;DHT22;46141;52.382;5.270;2023-03-23T13:11:33;22.50;70.10
60287;DHT22;46141;52.382;5.270;2023-03-23T13:22:53;22.40;70.10
60287;DHT22;46141;52.382;5.270;2023-03-23T13:25:45;22.40;70.00
60287;DHT22;46141;52.382;5.270;2023-03-23T13:28:28;22.40;70.20
60287;DHT22;46141;52.382;5.270;2023-03-23T13:31:16;22.50;70.30
60287;DHT22;46141;52.382;5.270;2023-03-23T13:33:49;22.50;70.40
60287;DHT22;46141;52.382;5.270;2023-03-23T13:36:30;22.60;70.30
60287;DHT22;46141;52.382;5.270;2023-03-23T13:38:58;22.70;70.30
60287;DHT22;46141;52.382;5.270;2023-03-23T13:41:26;22.80;70.40
60287;DHT22;46141;52.382;5.270;2023-03-23T13:43:52;22.80;70.40
60287;DHT22;46141;52.382;5.270;2023-03-23T13:48:50;22.90;70.20
60287;DHT22;46141;52.382;5.270;2023-03-23T13:56:57;23.20;70.00
60287;DHT22;46141;52.382;5.270;2023-03-23T13:59:30;23.20;70.00
60287;DHT22;46141;52.382;5.270;2023-03-23T14:07:54;23.20;69.70
60287;DHT22;46141;52.382;5.270;2023-03-23T14:10:21;23.20;69.70
60287;DHT22;46141;52.382;5.270;2023-03-23T14:12:52;23.30;69.70
60287;DHT22;46141;52.382;5.270;2023-03-23T14:15:18;23.30;69.70
60287;DHT22;46141;52.382;5.270;2023-03-23T14:17:45;23.40;69.60
60287;DHT22;46141;52.382;5.270;2023-03-23T14:20:29;23.40;69.40
60287;DHT22;46141;52.382;5.270;2023-03-23T14:22:56;23.50;69.30
60287;DHT22;46141;52.382;5.270;2023-03-23T14:25:27;23.50;69.30
60287;DHT22;46141;52.382;5.270;2023-03-23T14:27:54;23.50;69.10
60287;DHT22;46141;52.382;5.270;2023-03-23T14:30:22;23.60;69.10
60287;DHT22;46141;52.382;5.270;2023-03-23T14:32:49;23.60;69.00
60287;DHT22;46141;52.382;5.270;2023-03-23T14:35:33;23.70;68.90
60287;DHT22;46141;52.382;5.270;2023-03-23T14:38:00;23.80;68.80
60287;DHT22;46141;52.382;5.270;2023-03-23T14:40:29;23.80;69.00
60287;DHT22;46141;52.382;5.270;2023-03-23T14:42:57;23.80;68.80
60287;DHT22;46141;52.382;5.270;2023-03-23T14:45:24;23.90;68.70
60287;DHT22;46141;52.382;5.270;2023-03-23T14:48:13;23.90;68.70
60287;DHT22;46141;52.382;5.270;2023-03-23T14:50:48;23.90;68.70
60287;DHT22;46141;52.382;5.270;2023-03-23T14:53:29;23.90;68.50
60287;DHT22;46141;52.382;5.270;2023-03-23T14:56:06;24.00;68.30
60287;DHT22;46141;52.382;5.270;2023-03-23T14:58:34;24.10;68.30
60287;DHT22;46141;52.382;5.270;2023-03-23T15:01:06;24.20;68.20
60287;DHT22;46141;52.382;5.270;2023-03-23T15:03:38;24.20;68.10
60287;DHT22;46141;52.382;5.270;2023-03-23T15:06:14;24.20;68.10
60287;DHT22;46141;52.382;5.270;2023-03-23T15:08:41;24.30;68.10
60287;DHT22;46141;52.382;5.270;2023-03-23T15:13:49;24.40;68.10
60287;DHT22;46141;52.382;5.270;2023-03-23T15:16:24;24.40;68.00
60287;DHT22;46141;52.382;5.270;2023-03-23T15:19:04;24.40;68.00
60287;DHT22;46141;52.382;5.270;2023-03-23T15:23:57;24.40;67.80
60287;DHT22;46141;52.382;5.270;2023-03-23T15:29:19;24.50;67.80
60287;DHT22;46141;52.382;5.270;2023-03-23T15:31:53;24.40;67.60
60287;DHT22;46141;52.382;5.270;2023-03-23T15:34:34;24.40;67.70
60287;DHT22;46141;52.382;5.270;2023-03-23T15:37:16;24.40;67.80
60287;DHT22;46141;52.382;5.270;2023-03-23T15:39:45;24.40;67.90
60287;DHT22;46141;52.382;5.270;2023-03-23T15:47:46;24.40;67.20
60287;DHT22;46141;52.382;5.270;2023-03-23T15:52:38;24.50;67.40
60287;DHT22;46141;52.382;5.270;2023-03-23T15:55:23;24.50;67.10
60287;DHT22;46141;52.382;5.270;2023-03-23T15:57:50;24.50;66.80
60287;DHT22;46141;52.382;5.270;2023-03-23T16:00:17;24.40;66.70
60287;DHT22;46141;52.382;5.270;2023-03-23T16:02:52;24.40;67.00
60287;DHT22;46141;52.382;5.270;2023-03-23T16:05:19;24.40;67.50
60287;DHT22;46141;52.382;5.270;2023-03-23T16:07:45;24.30;67.50
60287;DHT22;46141;52.382;5.270;2023-03-23T16:10:17;24.30;67.20
60287;DHT22;46141;52.382;5.270;2023-03-23T16:12:44;24.40;67.00
60287;DHT22;46141;52.382;5.270;2023-03-23T16:15:11;24.40;67.30
60287;DHT22;46141;52.382;5.270;2023-03-23T16:17:37;24.30;67.20
60287;DHT22;46141;52.382;5.270;2023-03-23T16:20:14;24.30;67.30
60287;DHT22;46141;52.382;5.270;2023-03-23T16:22:40;24.30;67.20
60287;DHT22;46141;52.382;5.270;2023-03-23T16:25:07;24.20;67.20
60287;DHT22;46141;52.382;5.270;2023-03-23T16:27:33;24.20;67.40
60287;DHT22;46141;52.382;5.270;2023-03-23T16:29:59;24.20;67.70
60287;DHT22;46141;52.382;5.270;2023-03-23T16:32:28;24.20;67.80
60287;DHT22;46141;52.382;5.270;2023-03-23T16:34:53;24.10;67.90
60287;DHT22;46141;52.382;5.270;2023-03-23T16:37:19;24.00;67.90
60287;DHT22;46141;52.382;5.270;2023-03-23T16:39:46;24.00;68.00
60287;DHT22;46141;52.382;5.270;2023-03-23T16:42:11;24.00;68.10
60287;DHT22;46141;52.382;5.270;2023-03-23T16:44:37;24.00;68.00
60287;DHT22;46141;52.382;5.270;2023-03-23T16:47:03;23.90;68.00
60287;DHT22;46141;52.382;5.270;2023-03-23T16:49:28;23.90;68.00
60287;DHT22;46141;52.382;5.270;2023-03-23T16:51:54;23.80;68.00
60287;DHT22;46141;52.382;5.270;2023-03-23T16:54:20;23.80;68.10
60287;DHT22;46141;52.382;5.270;2023-03-23T16:56:46;23.80;68.30
60287;DHT22;46141;52.382;5.270;2023-03-23T16:59:13;23.80;68.10
60287;DHT22;46141;52.382;5.270;2023-03-23T17:01:39;23.70;68.20
60287;DHT22;46141;52.382;5.270;2023-03-23T17:04:05;23.70;68.20
60287;DHT22;46141;52.382;5.270;2023-03-23T17:06:31;23.60;68.30
60287;DHT22;46141;52.382;5.270;2023-03-23T17:08:56;23.60;68.60
60287;DHT22;46141;52.382;5.270;2023-03-23T17:11:22;23.60;68.60
60287;DHT22;46141;52.382;5.270;2023-03-23T17:13:48;23.50;67.60
60287;DHT22;46141;52.382;5.270;2023-03-23T17:16:13;23.50;66.60
60287;DHT22;46141;52.382;5.270;2023-03-23T17:18:39;23.50;66.40
60287;DHT22;46141;52.382;5.270;2023-03-23T17:21:05;23.50;66.50
60287;DHT22;46141;52.382;5.270;2023-03-23T17:23:32;23.40;68.00
60287;DHT22;46141;52.382;5.270;2023-03-23T17:25:57;23.40;67.30
60287;DHT22;46141;52.382;5.270;2023-03-23T17:28:23;23.40;68.00
60287;DHT22;46141;52.382;5.270;2023-03-23T17:30:51;23.40;68.30
60287;DHT22;46141;52.382;5.270;2023-03-23T17:33:17;23.40;68.40
60287;DHT22;46141;52.382;5.270;2023-03-23T17:35:45;23.40;68.70
60287;DHT22;46141;52.382;5.270;2023-03-23T17:38:13;23.40;68.90
60287;DHT22;46141;52.382;5.270;2023-03-23T17:40:39;23.40;69.10
60287;DHT22;46141;52.382;5.270;2023-03-23T17:43:04;23.40;69.10
60287;DHT22;46141;52.382;5.270;2023-03-23T17:45:31;23.30;69.20
60287;DHT22;46141;52.382;5.270;2023-03-23T17:47:56;23.30;69.80
60287;DHT22;46141;52.382;5.270;2023-03-23T17:50:22;23.30;69.30
60287;DHT22;46141;52.382;5.270;2023-03-23T17:52:48;23.20;69.70
60287;DHT22;46141;52.382;5.270;2023-03-23T17:55:14;23.20;70.10
60287;DHT22;46141;52.382;5.270;2023-03-23T17:57:40;23.20;70.20
60287;DHT22;46141;52.382;5.270;2023-03-23T18:00:07;23.10;69.90
60287;DHT22;46141;52.382;5.270;2023-03-23T18:02:34;23.10;69.80
60287;DHT22;46141;52.382;5.270;2023-03-23T18:05:00;23.10;69.90
60287;DHT22;46141;52.382;5.270;2023-03-23T18:07:26;23.10;70.20
60287;DHT22;46141;52.382;5.270;2023-03-23T18:09:52;23.10;70.10
60287;DHT22;46141;52.382;5.270;2023-03-23T18:12:18;23.00;71.00
60287;DHT22;46141;52.382;5.270;2023-03-23T18:14:43;23.00;70.20
60287;DHT22;46141;52.382;5.270;2023-03-23T18:17:09;23.00;71.00
60287;DHT22;46141;52.382;5.270;2023-03-23T18:19:35;22.90;70.70